sensor_id;sensor_type;location;lat;lon;timestamp;pressure;altitude;pressure_sealevel;temperature;humidity
69173;BME280;56280;49.662;8.408;2023-08-31T00:01:54;100032.47;;;15.91;83.41
69173;BME280;56280;49.662;8.408;2023-08-31T00:04:19;100060.59;;;16.03;82.48
69173;BME280;56280;49.662;8.408;2023-08-31T00:06:45;100024.13;;;15.78;82.42
69173;BME280;56280;49.662;8.408;2023-08-31T00:09:11;100066.94;;;16.02;82.61
69173;BME280;56280;49.662;8.408;2023-08-31T00:11:37;100054.19;;;16.04;82.43
69173;BME280;56280;49.662;8.408;2023-08-31T00:14:03;99971.22;;;15.47;82.55
69173;BME280;56280;49.662;8.408;2023-08-31T00:16:30;100057.72;;;15.97;82.51
69173;BME280;56280;49.662;8.408;2023-08-31T00:18:56;100051.88;;;15.93;82.54
69173;BME280;56280;49.662;8.408;2023-08-31T00:21:22;100061.91;;;15.99;82.71
69173;BME280;56280;49.662;8.408;2023-08-31T00:23:48;100065.56;;;16.07;82.24
69173;BME280;56280;49.662;8.408;2023-08-31T00:26:14;100069.59;;;16.11;82.70
69173;BME280;56280;49.662;8.408;2023-08-31T00:28:40;100030.78;;;15.90;82.02
69173;BME280;56280;49.662;8.408;2023-08-31T00:31:10;100053.38;;;16.04;82.03
69173;BME280;56280;49.662;8.408;2023-08-31T00:33:38;100027.47;;;15.63;82.78
69173;BME280;56280;49.662;8.408;2023-08-31T00:36:03;100065.28;;;15.85;83.51
69173;BME280;56280;49.662;8.408;2023-08-31T00:38:29;100063.25;;;15.71;82.99
69173;BME280;56280;49.662;8.408;2023-08-31T00:40:55;100054.41;;;15.62;84.04
69173;BME280;56280;49.662;8.408;2023-08-31T00:43:20;100069.66;;;15.86;83.39
69173;BME280;56280;49.662;8.408;2023-08-31T00:45:49;100065.78;;;15.80;83.23
69173;BME280;56280;49.662;8.408;2023-08-31T00:48:16;100059.59;;;15.80;83.44
69173;BME280;56280;49.662;8.408;2023-08-31T00:50:43;100073.97;;;15.87;83.11
69173;BME280;56280;49.662;8.408;2023-08-31T00:53:08;100078.34;;;15.96;82.80
69173;BME280;56280;49.662;8.408;2023-08-31T00:55:34;100066.81;;;15.79;83.02
69173;BME280;56280;49.662;8.408;2023-08-31T00:58:00;100056.59;;;15.83;83.36
69173;BME280;56280;49.662;8.408;2023-08-31T01:00:36;100063.94;;;15.81;83.17
69173;BME280;56280;49.662;8.408;2023-08-31T01:03:09;100074.31;;;15.92;82.46
69173;BME280;56280;49.662;8.408;2023-08-31T01:05:46;100089.38;;;15.93;83.09
69173;BME280;56280;49.662;8.408;2023-08-31T01:08:40;100079.84;;;15.91;83.12
69173;BME280;56280;49.662;8.408;2023-08-31T01:11:57;100087.03;;;15.98;82.51
69173;BME280;56280;49.662;8.408;2023-08-31T01:14:29;100073.81;;;15.80;82.96
69173;BME280;56280;49.662;8.408;2023-08-31T01:16:58;100082.00;;;15.95;82.45
69173;BME280;56280;49.662;8.408;2023-08-31T01:19:44;100067.31;;;15.83;82.62
69173;BME280;56280;49.662;8.408;2023-08-31T01:22:21;100060.75;;;15.69;82.75
69173;BME280;56280;49.662;8.408;2023-08-31T01:24:50;100056.91;;;15.72;82.71
69173;BME280;56280;49.662;8.408;2023-08-31T01:27:17;100089.38;;;15.93;82.73
69173;BME280;56280;49.662;8.408;2023-08-31T01:29:43;100064.97;;;15.80;82.43
69173;BME280;56280;49.662;8.408;2023-08-31T01:32:08;100100.94;;;15.94;82.55
69173;BME280;56280;49.662;8.408;2023-08-31T01:34:34;100057.41;;;15.75;82.74
69173;BME280;56280;49.662;8.408;2023-08-31T01:37:12;100090.38;;;15.84;83.60
69173;BME280;56280;49.662;8.408;2023-08-31T01:39:49;100088.56;;;15.93;83.54
69173;BME280;56280;49.662;8.408;2023-08-31T01:42:17;100091.38;;;15.99;82.99
69173;BME280;56280;49.662;8.408;2023-08-31T01:44:45;100086.03;;;15.99;83.38
69173;BME280;56280;49.662;8.408;2023-08-31T01:47:13;100088.72;;;15.91;83.27
69173;BME280;56280;49.662;8.408;2023-08-31T01:49:41;100070.28;;;15.72;83.17
69173;BME280;56280;49.662;8.408;2023-08-31T01:52:08;100103.44;;;15.95;83.64
69173;BME280;56280;49.662;8.408;2023-08-31T01:54:34;100077.69;;;15.86;83.50
69173;BME280;56280;49.662;8.408;2023-08-31T01:56:59;100109.81;;;16.02;83.35
69173;BME280;56280;49.662;8.408;2023-08-31T01:59:24;100107.78;;;16.04;82.65
69173;BME280;56280;49.662;8.408;2023-08-31T02:01:53;100083.03;;;15.86;82.45
69173;BME280;56280;49.662;8.408;2023-08-31T02:04:18;100086.88;;;15.92;82.27
69173;BME280;56280;49.662;8.408;2023-08-31T02:06:43;100101.78;;;16.02;82.08
69173;BME280;56280;49.662;8.408;2023-08-31T02:09:09;100097.41;;;16.01;81.92
69173;BME280;56280;49.662;8.408;2023-08-31T02:11:37;100073.50;;;15.83;81.50
69173;BME280;56280;49.662;8.408;2023-08-31T02:14:06;100079.00;;;15.82;82.32
69173;BME280;56280;49.662;8.408;2023-08-31T02:16:32;100106.47;;;16.00;82.17
69173;BME280;56280;49.662;8.408;2023-08-31T02:18:58;100101.28;;;15.91;81.85
69173;BME280;56280;49.662;8.408;2023-08-31T02:21:24;100067.97;;;15.60;82.19
69173;BME280;56280;49.662;8.408;2023-08-31T02:23:50;100104.09;;;15.73;82.78
69173;BME280;56280;49.662;8.408;2023-08-31T02:26:15;100107.94;;;15.62;83.11
69173;BME280;56280;49.662;8.408;2023-08-31T02:28:40;100098.06;;;15.54;83.12
69173;BME280;56280;49.662;8.408;2023-08-31T02:31:06;100097.03;;;15.47;83.06
69173;BME280;56280;49.662;8.408;2023-08-31T02:33:31;100048.66;;;14.99;83.57
69173;BME280;56280;49.662;8.408;2023-08-31T02:35:56;100125.28;;;15.25;84.46
69173;BME280;56280;49.662;8.408;2023-08-31T02:38:22;100123.44;;;15.17;84.70
69173;BME280;56280;49.662;8.408;2023-08-31T02:40:48;100066.78;;;14.71;84.22
69173;BME280;56280;49.662;8.408;2023-08-31T02:43:14;100118.00;;;14.92;85.01
69173;BME280;56280;49.662;8.408;2023-08-31T02:45:39;100125.66;;;14.87;85.23
69173;BME280;56280;49.662;8.408;2023-08-31T02:48:07;100114.19;;;14.61;85.74
69173;BME280;56280;49.662;8.408;2023-08-31T02:50:34;100102.00;;;14.66;85.31
69173;BME280;56280;49.662;8.408;2023-08-31T02:52:59;100137.91;;;14.98;85.21
69173;BME280;56280;49.662;8.408;2023-08-31T02:55:25;100133.19;;;14.92;84.52
69173;BME280;56280;49.662;8.408;2023-08-31T02:58:08;100137.09;;;14.98;84.02
69173;BME280;56280;49.662;8.408;2023-08-31T03:00:33;100132.56;;;14.98;84.20
69173;BME280;56280;49.662;8.408;2023-08-31T03:02:58;100148.59;;;14.98;84.13
69173;BME280;56280;49.662;8.408;2023-08-31T03:05:24;100126.81;;;14.76;84.43
69173;BME280;56280;49.662;8.408;2023-08-31T03:07:52;100138.06;;;14.97;84.05
69173;BME280;56280;49.662;8.408;2023-08-31T03:10:20;100149.69;;;14.79;83.97
69173;BME280;56280;49.662;8.408;2023-08-31T03:12:46;100148.38;;;14.57;85.04
69173;BME280;56280;49.662;8.408;2023-08-31T03:15:14;100158.00;;;14.68;85.13
69173;BME280;56280;49.662;8.408;2023-08-31T03:17:40;100129.59;;;14.67;84.75
69173;BME280;56280;49.662;8.408;2023-08-31T03:20:06;100146.63;;;14.66;84.69
69173;BME280;56280;49.662;8.408;2023-08-31T03:22:31;100152.72;;;14.58;84.96
69173;BME280;56280;49.662;8.408;2023-08-31T03:24:57;100150.59;;;14.62;84.55
69173;BME280;56280;49.662;8.408;2023-08-31T03:27:22;100168.50;;;14.61;84.76
69173;BME280;56280;49.662;8.408;2023-08-31T03:29:47;100174.59;;;14.53;85.02
69173;BME280;56280;49.662;8.408;2023-08-31T03:32:12;100157.84;;;14.43;84.14
69173;BME280;56280;49.662;8.408;2023-08-31T03:34:38;100147.44;;;14.40;84.48
69173;BME280;56280;49.662;8.408;2023-08-31T03:37:03;100087.06;;;13.95;84.73
69173;BME280;56280;49.662;8.408;2023-08-31T03:39:28;100167.84;;;14.41;84.82
69173;BME280;56280;49.662;8.408;2023-08-31T03:41:54;100168.88;;;14.48;83.92
69173;BME280;56280;49.662;8.408;2023-08-31T03:44:20;100156.31;;;14.40;83.84
69173;BME280;56280;49.662;8.408;2023-08-31T03:46:49;100182.75;;;14.52;84.17
69173;BME280;56280;49.662;8.408;2023-08-31T03:49:14;100182.28;;;14.56;83.76
69173;BME280;56280;49.662;8.408;2023-08-31T03:51:42;100159.03;;;14.49;83.33
69173;BME280;56280;49.662;8.408;2023-08-31T03:54:08;100163.13;;;14.35;83.74
69173;BME280;56280;49.662;8.408;2023-08-31T03:56:34;100144.53;;;14.25;83.82
69173;BME280;56280;49.662;8.408;2023-08-31T03:59:02;100161.38;;;14.26;83.40
69173;BME280;56280;49.662;8.408;2023-08-31T04:01:30;100164.56;;;14.29;83.18
69173;BME280;56280;49.662;8.408;2023-08-31T04:03:56;100175.06;;;14.22;83.29
69173;BME280;56280;49.662;8.408;2023-08-31T04:06:21;100185.44;;;14.26;83.70
69173;BME280;56280;49.662;8.408;2023-08-31T04:08:46;100172.31;;;14.14;84.57
69173;BME280;56280;49.662;8.408;2023-08-31T04:11:12;100173.63;;;13.92;84.89
69173;BME280;56280;49.662;8.408;2023-08-31T04:13:37;100167.59;;;14.08;84.36
69173;BME280;56280;49.662;8.408;2023-08-31T04:16:02;100190.88;;;14.16;84.29
69173;BME280;56280;49.662;8.408;2023-08-31T04:18:28;100194.91;;;14.02;84.61
69173;BME280;56280;49.662;8.408;2023-08-31T04:20:54;100188.53;;;13.95;84.38
69173;BME280;56280;49.662;8.408;2023-08-31T04:23:20;100193.03;;;14.12;84.41
69173;BME280;56280;49.662;8.408;2023-08-31T04:25:46;100171.13;;;13.91;84.20
69173;BME280;56280;49.662;8.408;2023-08-31T04:28:12;100198.69;;;13.91;84.51
69173;BME280;56280;49.662;8.408;2023-08-31T04:30:39;100197.81;;;14.09;83.96
69173;BME280;56280;49.662;8.408;2023-08-31T04:33:05;100183.19;;;13.95;83.91
69173;BME280;56280;49.662;8.408;2023-08-31T04:35:31;100191.56;;;14.00;83.63
69173;BME280;56280;49.662;8.408;2023-08-31T04:37:57;100183.09;;;14.04;83.35
69173;BME280;56280;49.662;8.408;2023-08-31T04:40:22;100167.47;;;13.92;83.27
69173;BME280;56280;49.662;8.408;2023-08-31T04:42:48;100208.59;;;14.17;83.18
69173;BME280;56280;49.662;8.408;2023-08-31T04:45:13;100187.47;;;14.06;82.63
69173;BME280;56280;49.662;8.408;2023-08-31T04:47:41;100204.38;;;14.14;82.28
69173;BME280;56280;49.662;8.408;2023-08-31T04:50:07;100220.84;;;14.28;81.81
69173;BME280;56280;49.662;8.408;2023-08-31T04:52:33;100220.00;;;14.27;81.55
69173;BME280;56280;49.662;8.408;2023-08-31T04:55:00;100189.72;;;14.18;81.21
69173;BME280;56280;49.662;8.408;2023-08-31T04:57:26;100207.78;;;14.25;80.84
69173;BME280;56280;49.662;8.408;2023-08-31T04:59:51;100230.66;;;14.45;81.29
69173;BME280;56280;49.662;8.408;2023-08-31T05:02:16;100227.22;;;14.53;80.83
69173;BME280;56280;49.662;8.408;2023-08-31T05:04:41;100224.22;;;14.56;80.67
69173;BME280;56280;49.662;8.408;2023-08-31T05:07:12;100213.84;;;14.53;80.44
69173;BME280;56280;49.662;8.408;2023-08-31T05:09:38;100201.69;;;14.58;80.87
69173;BME280;56280;49.662;8.408;2023-08-31T05:12:03;100230.97;;;14.86;81.16
69173;BME280;56280;49.662;8.408;2023-08-31T05:14:35;100198.47;;;14.73;80.82
69173;BME280;56280;49.662;8.408;2023-08-31T05:17:05;100217.00;;;15.01;80.65
69173;BME280;56280;49.662;8.408;2023-08-31T05:19:30;100236.56;;;15.44;80.02
69173;BME280;56280;49.662;8.408;2023-08-31T05:21:56;100214.81;;;15.39;79.84
69173;BME280;56280;49.662;8.408;2023-08-31T05:24:22;100222.06;;;15.55;78.90
69173;BME280;56280;49.662;8.408;2023-08-31T05:26:49;100217.25;;;15.66;78.70
69173;BME280;56280;49.662;8.408;2023-08-31T05:29:14;100233.31;;;15.75;78.38
69173;BME280;56280;49.662;8.408;2023-08-31T05:31:40;100255.31;;;16.03;77.55
69173;BME280;56280;49.662;8.408;2023-08-31T05:34:05;100270.91;;;16.32;76.68
69173;BME280;56280;49.662;8.408;2023-08-31T05:36:31;100262.88;;;16.57;76.48
69173;BME280;56280;49.662;8.408;2023-08-31T05:38:56;100267.53;;;16.80;75.68
69173;BME280;56280;49.662;8.408;2023-08-31T05:41:21;100254.78;;;16.98;74.55
69173;BME280;56280;49.662;8.408;2023-08-31T05:43:46;100259.06;;;17.24;73.98
69173;BME280;56280;49.662;8.408;2023-08-31T05:46:12;100268.66;;;17.58;72.96
69173;BME280;56280;49.662;8.408;2023-08-31T05:48:37;100250.97;;;17.72;71.52
69173;BME280;56280;49.662;8.408;2023-08-31T05:51:03;100261.75;;;17.95;70.73
69173;BME280;56280;49.662;8.408;2023-08-31T05:53:31;100253.63;;;18.03;69.26
69173;BME280;56280;49.662;8.408;2023-08-31T05:55:57;100278.56;;;18.20;69.05
69173;BME280;56280;49.662;8.408;2023-08-31T05:58:32;100263.06;;;18.45;68.81
69173;BME280;56280;49.662;8.408;2023-08-31T06:00:58;100280.16;;;18.52;67.99
69173;BME280;56280;49.662;8.408;2023-08-31T06:03:23;100252.06;;;18.70;66.91
69173;BME280;56280;49.662;8.408;2023-08-31T06:05:49;100278.69;;;19.18;65.54
69173;BME280;56280;49.662;8.408;2023-08-31T06:08:15;100269.22;;;19.07;64.98
69173;BME280;56280;49.662;8.408;2023-08-31T06:10:40;100265.13;;;19.11;65.26
69173;BME280;56280;49.662;8.408;2023-08-31T06:13:05;100282.03;;;19.20;64.83
69173;BME280;56280;49.662;8.408;2023-08-31T06:15:31;100282.28;;;19.40;65.08
69173;BME280;56280;49.662;8.408;2023-08-31T06:17:56;100292.53;;;19.15;64.90
69173;BME280;56280;49.662;8.408;2023-08-31T06:20:21;100281.41;;;18.80;64.47
69173;BME280;56280;49.662;8.408;2023-08-31T06:22:47;100297.75;;;18.78;64.69
69173;BME280;56280;49.662;8.408;2023-08-31T06:25:12;100297.00;;;18.69;64.69
69173;BME280;56280;49.662;8.408;2023-08-31T06:27:41;100274.00;;;18.44;64.55
69173;BME280;56280;49.662;8.408;2023-08-31T06:30:08;100298.69;;;18.47;65.10
69173;BME280;56280;49.662;8.408;2023-08-31T06:32:34;100303.00;;;18.56;65.05
69173;BME280;56280;49.662;8.408;2023-08-31T06:34:59;100274.78;;;18.29;64.96
69173;BME280;56280;49.662;8.408;2023-08-31T06:37:24;100314.16;;;18.22;65.00
69173;BME280;56280;49.662;8.408;2023-08-31T06:39:50;100277.28;;;17.76;65.63
69173;BME280;56280;49.662;8.408;2023-08-31T06:42:19;100298.53;;;17.63;65.91
69173;BME280;56280;49.662;8.408;2023-08-31T06:44:45;100316.94;;;17.66;66.72
69173;BME280;56280;49.662;8.408;2023-08-31T06:47:10;100319.72;;;17.49;67.30
69173;BME280;56280;49.662;8.408;2023-08-31T06:49:39;100324.19;;;17.26;67.48
69173;BME280;56280;49.662;8.408;2023-08-31T06:52:05;100306.06;;;17.20;67.63
69173;BME280;56280;49.662;8.408;2023-08-31T06:54:35;100334.53;;;17.37;68.19
69173;BME280;56280;49.662;8.408;2023-08-31T06:57:01;100330.72;;;17.71;67.94
69173;BME280;56280;49.662;8.408;2023-08-31T06:59:28;100308.13;;;17.89;68.38
69173;BME280;56280;49.662;8.408;2023-08-31T07:01:54;100287.75;;;17.71;67.00
69173;BME280;56280;49.662;8.408;2023-08-31T07:04:19;100297.50;;;18.03;66.75
69173;BME280;56280;49.662;8.408;2023-08-31T07:06:45;100312.47;;;18.67;67.41
69173;BME280;56280;49.662;8.408;2023-08-31T07:09:13;100297.41;;;19.11;65.64
69173;BME280;56280;49.662;8.408;2023-08-31T07:11:39;100308.94;;;19.64;64.35
69173;BME280;56280;49.662;8.408;2023-08-31T07:14:04;100332.31;;;20.30;63.20
69173;BME280;56280;49.662;8.408;2023-08-31T07:16:30;100307.44;;;20.78;60.75
69173;BME280;56280;49.662;8.408;2023-08-31T07:18:59;100311.09;;;21.27;59.82
69173;BME280;56280;49.662;8.408;2023-08-31T07:21:24;100337.16;;;21.41;58.53
69173;BME280;56280;49.662;8.408;2023-08-31T07:23:50;100309.44;;;21.61;57.09
69173;BME280;56280;49.662;8.408;2023-08-31T07:26:15;100325.97;;;21.93;56.18
69173;BME280;56280;49.662;8.408;2023-08-31T07:28:41;100327.94;;;22.19;55.81
69173;BME280;56280;49.662;8.408;2023-08-31T07:31:07;100328.59;;;22.34;53.63
69173;BME280;56280;49.662;8.408;2023-08-31T07:33:33;100353.31;;;22.25;54.55
69173;BME280;56280;49.662;8.408;2023-08-31T07:36:00;100339.47;;;22.68;54.65
69173;BME280;56280;49.662;8.408;2023-08-31T07:38:26;100329.06;;;22.71;53.20
69173;BME280;56280;49.662;8.408;2023-08-31T07:40:52;100344.09;;;23.07;51.76
69173;BME280;56280;49.662;8.408;2023-08-31T07:43:18;100327.97;;;23.33;50.98
69173;BME280;56280;49.662;8.408;2023-08-31T07:45:43;100352.72;;;23.56;51.01
69173;BME280;56280;49.662;8.408;2023-08-31T07:48:08;100344.75;;;23.75;53.15
69173;BME280;56280;49.662;8.408;2023-08-31T07:50:33;100341.75;;;23.96;50.90
69173;BME280;56280;49.662;8.408;2023-08-31T07:52:59;100347.66;;;24.25;49.81
69173;BME280;56280;49.662;8.408;2023-08-31T07:55:25;100362.88;;;24.26;49.55
69173;BME280;56280;49.662;8.408;2023-08-31T07:57:50;100337.66;;;24.19;47.80
69173;BME280;56280;49.662;8.408;2023-08-31T08:00:15;100341.66;;;24.10;48.77
69173;BME280;56280;49.662;8.408;2023-08-31T08:02:41;100369.31;;;23.93;48.41
69173;BME280;56280;49.662;8.408;2023-08-31T08:05:06;100338.31;;;23.62;48.87
69173;BME280;56280;49.662;8.408;2023-08-31T08:07:32;100335.06;;;23.07;48.80
69173;BME280;56280;49.662;8.408;2023-08-31T08:09:57;100372.97;;;22.60;49.84
69173;BME280;56280;49.662;8.408;2023-08-31T08:12:22;100366.59;;;22.06;50.46
69173;BME280;56280;49.662;8.408;2023-08-31T08:14:48;100335.50;;;21.75;50.14
69173;BME280;56280;49.662;8.408;2023-08-31T08:17:14;100377.66;;;21.70;51.41
69173;BME280;56280;49.662;8.408;2023-08-31T08:19:39;100342.25;;;21.23;51.76
69173;BME280;56280;49.662;8.408;2023-08-31T08:22:04;100389.94;;;21.37;52.27
69173;BME280;56280;49.662;8.408;2023-08-31T08:24:29;100391.44;;;21.18;52.61
69173;BME280;56280;49.662;8.408;2023-08-31T08:26:55;100395.66;;;20.99;52.46
69173;BME280;56280;49.662;8.408;2023-08-31T08:29:20;100393.03;;;21.06;52.99
69173;BME280;56280;49.662;8.408;2023-08-31T08:31:45;100393.81;;;21.28;52.93
69173;BME280;56280;49.662;8.408;2023-08-31T08:34:11;100387.09;;;21.17;52.93
69173;BME280;56280;49.662;8.408;2023-08-31T08:36:36;100409.34;;;21.19;53.83
69173;BME280;56280;49.662;8.408;2023-08-31T08:39:01;100384.97;;;21.76;52.26
69173;BME280;56280;49.662;8.408;2023-08-31T08:41:29;100382.19;;;22.04;51.14
69173;BME280;56280;49.662;8.408;2023-08-31T08:43:56;100392.16;;;21.97;50.72
69173;BME280;56280;49.662;8.408;2023-08-31T08:46:26;100376.69;;;21.77;50.56
69173;BME280;56280;49.662;8.408;2023-08-31T08:48:53;100399.31;;;22.25;51.43
69173;BME280;56280;49.662;8.408;2023-08-31T08:51:20;100359.06;;;21.95;50.23
69173;BME280;56280;49.662;8.408;2023-08-31T08:53:47;100374.97;;;22.25;50.52
69173;BME280;56280;49.662;8.408;2023-08-31T08:56:13;100401.53;;;22.56;48.82
69173;BME280;56280;49.662;8.408;2023-08-31T08:58:39;100396.13;;;22.76;48.37
69173;BME280;56280;49.662;8.408;2023-08-31T09:01:07;100396.97;;;22.83;48.16
69173;BME280;56280;49.662;8.408;2023-08-31T09:03:32;100395.00;;;22.30;48.09
69173;BME280;56280;49.662;8.408;2023-08-31T09:05:59;100392.34;;;22.50;47.02
69173;BME280;56280;49.662;8.408;2023-08-31T09:08:27;100399.31;;;22.18;48.31
69173;BME280;56280;49.662;8.408;2023-08-31T09:10:55;100383.06;;;22.18;47.61
69173;BME280;56280;49.662;8.408;2023-08-31T09:13:26;100368.66;;;22.04;47.27
69173;BME280;56280;49.662;8.408;2023-08-31T09:15:52;100362.00;;;22.07;48.29
69173;BME280;56280;49.662;8.408;2023-08-31T09:18:31;100395.16;;;22.15;47.68
69173;BME280;56280;49.662;8.408;2023-08-31T09:20:57;100398.56;;;21.89;47.25
69173;BME280;56280;49.662;8.408;2023-08-31T09:23:23;100367.09;;;21.81;48.72
69173;BME280;56280;49.662;8.408;2023-08-31T09:25:50;100371.31;;;21.49;48.24
69173;BME280;56280;49.662;8.408;2023-08-31T09:28:23;100400.28;;;21.62;48.98
69173;BME280;56280;49.662;8.408;2023-08-31T09:30:50;100384.00;;;21.48;48.64
69173;BME280;56280;49.662;8.408;2023-08-31T09:33:16;100390.75;;;21.66;48.55
69173;BME280;56280;49.662;8.408;2023-08-31T09:35:54;100389.09;;;21.37;47.81
69173;BME280;56280;49.662;8.408;2023-08-31T09:38:21;100392.00;;;21.35;48.75
69173;BME280;56280;49.662;8.408;2023-08-31T09:40:46;100399.75;;;21.45;48.43
69173;BME280;56280;49.662;8.408;2023-08-31T09:43:12;100382.13;;;21.21;49.28
69173;BME280;56280;49.662;8.408;2023-08-31T09:45:38;100394.22;;;21.53;48.45
69173;BME280;56280;49.662;8.408;2023-08-31T09:48:04;100402.03;;;21.76;48.53
69173;BME280;56280;49.662;8.408;2023-08-31T09:50:31;100400.69;;;21.30;48.95
69173;BME280;56280;49.662;8.408;2023-08-31T09:53:02;100383.34;;;21.18;48.84
69173;BME280;56280;49.662;8.408;2023-08-31T09:55:30;100398.81;;;21.31;48.56
69173;BME280;56280;49.662;8.408;2023-08-31T09:57:56;100390.88;;;21.23;48.12
69173;BME280;56280;49.662;8.408;2023-08-31T10:00:26;100390.66;;;21.24;47.79
69173;BME280;56280;49.662;8.408;2023-08-31T10:02:53;100389.00;;;21.23;47.67
69173;BME280;56280;49.662;8.408;2023-08-31T10:05:20;100395.75;;;21.41;48.66
69173;BME280;56280;49.662;8.408;2023-08-31T10:07:46;100392.25;;;21.40;47.26
69173;BME280;56280;49.662;8.408;2023-08-31T10:10:13;100377.75;;;21.20;47.99
69173;BME280;56280;49.662;8.408;2023-08-31T10:12:39;100396.84;;;21.46;48.38
69173;BME280;56280;49.662;8.408;2023-08-31T10:15:06;100392.78;;;21.29;48.63
69173;BME280;56280;49.662;8.408;2023-08-31T10:17:32;100371.25;;;21.42;47.75
69173;BME280;56280;49.662;8.408;2023-08-31T10:19:57;100377.78;;;21.48;45.94
69173;BME280;56280;49.662;8.408;2023-08-31T10:22:23;100382.06;;;21.71;45.67
69173;BME280;56280;49.662;8.408;2023-08-31T10:25:05;100364.25;;;21.48;46.78
69173;BME280;56280;49.662;8.408;2023-08-31T10:32:46;100384.63;;;21.92;45.92
69173;BME280;56280;49.662;8.408;2023-08-31T10:35:12;100370.72;;;22.02;45.89
69173;BME280;56280;49.662;8.408;2023-08-31T10:37:39;100388.81;;;22.43;45.47
69173;BME280;56280;49.662;8.408;2023-08-31T10:40:12;100379.59;;;22.31;44.71
69173;BME280;56280;49.662;8.408;2023-08-31T10:42:45;100371.09;;;22.40;43.97
69173;BME280;56280;49.662;8.408;2023-08-31T10:45:15;100362.16;;;22.47;43.86
69173;BME280;56280;49.662;8.408;2023-08-31T10:47:46;100393.81;;;22.73;44.02
69173;BME280;56280;49.662;8.408;2023-08-31T10:50:22;100375.50;;;22.62;42.85
69173;BME280;56280;49.662;8.408;2023-08-31T10:52:48;100375.53;;;22.82;43.39
69173;BME280;56280;49.662;8.408;2023-08-31T10:55:14;100363.22;;;22.59;42.23
69173;BME280;56280;49.662;8.408;2023-08-31T10:57:40;100382.38;;;22.71;41.93
69173;BME280;56280;49.662;8.408;2023-08-31T11:00:07;100369.25;;;22.68;42.25
69173;BME280;56280;49.662;8.408;2023-08-31T11:05:17;100382.59;;;22.69;42.11
69173;BME280;56280;49.662;8.408;2023-08-31T11:07:43;100376.56;;;22.67;42.18
69173;BME280;56280;49.662;8.408;2023-08-31T11:10:22;100383.00;;;22.66;42.52
69173;BME280;56280;49.662;8.408;2023-08-31T11:12:55;100363.63;;;22.69;42.31
69173;BME280;56280;49.662;8.408;2023-08-31T11:15:26;100344.88;;;22.54;40.52
69173;BME280;56280;49.662;8.408;2023-08-31T11:17:53;100359.28;;;22.75;41.06
69173;BME280;56280;49.662;8.408;2023-08-31T11:20:20;100382.00;;;23.07;40.87
69173;BME280;56280;49.662;8.408;2023-08-31T11:22:48;100374.69;;;22.88;40.36
69173;BME280;56280;49.662;8.408;2023-08-31T11:25:18;100383.44;;;23.03;40.42
69173;BME280;56280;49.662;8.408;2023-08-31T11:27:57;100371.97;;;22.81;38.77
69173;BME280;56280;49.662;8.408;2023-08-31T11:30:22;100369.47;;;22.66;38.82
69173;BME280;56280;49.662;8.408;2023-08-31T11:32:50;100368.44;;;22.74;38.44
69173;BME280;56280;49.662;8.408;2023-08-31T11:35:16;100371.75;;;22.49;39.13
69173;BME280;56280;49.662;8.408;2023-08-31T11:37:43;100372.03;;;22.19;39.13
69173;BME280;56280;49.662;8.408;2023-08-31T11:40:10;100357.03;;;22.10;39.87
69173;BME280;56280;49.662;8.408;2023-08-31T11:42:35;100369.00;;;22.36;40.66
69173;BME280;56280;49.662;8.408;2023-08-31T11:45:01;100366.22;;;22.22;39.82
69173;BME280;56280;49.662;8.408;2023-08-31T11:47:30;100347.94;;;22.31;41.29
69173;BME280;56280;49.662;8.408;2023-08-31T11:49:56;100343.81;;;22.55;40.84
69173;BME280;56280;49.662;8.408;2023-08-31T11:52:21;100361.78;;;22.76;41.10
69173;BME280;56280;49.662;8.408;2023-08-31T11:54:52;100343.84;;;22.62;40.87
69173;BME280;56280;49.662;8.408;2023-08-31T11:57:18;100370.72;;;22.64;41.39
69173;BME280;56280;49.662;8.408;2023-08-31T11:59:46;100347.78;;;22.60;40.84
69173;BME280;56280;49.662;8.408;2023-08-31T12:02:11;100354.84;;;22.47;41.10
69173;BME280;56280;49.662;8.408;2023-08-31T12:04:43;100375.69;;;22.53;40.82
69173;BME280;56280;49.662;8.408;2023-08-31T12:07:09;100372.56;;;22.56;40.27
69173;BME280;56280;49.662;8.408;2023-08-31T12:09:34;100374.63;;;22.41;41.03
69173;BME280;56280;49.662;8.408;2023-08-31T12:12:00;100387.50;;;22.32;41.86
69173;BME280;56280;49.662;8.408;2023-08-31T12:14:27;100366.13;;;21.96;42.78
69173;BME280;56280;49.662;8.408;2023-08-31T12:17:00;100381.16;;;22.05;42.79
69173;BME280;56280;49.662;8.408;2023-08-31T12:19:28;100357.44;;;22.07;43.28
69173;BME280;56280;49.662;8.408;2023-08-31T12:21:54;100359.72;;;22.10;44.17
69173;BME280;56280;49.662;8.408;2023-08-31T12:24:20;100359.91;;;22.70;43.93
69173;BME280;56280;49.662;8.408;2023-08-31T12:26:47;100335.50;;;22.57;42.40
69173;BME280;56280;49.662;8.408;2023-08-31T12:29:15;100380.09;;;22.68;41.43
69173;BME280;56280;49.662;8.408;2023-08-31T12:31:40;100365.28;;;22.57;40.79
69173;BME280;56280;49.662;8.408;2023-08-31T12:34:06;100365.94;;;22.72;40.63
69173;BME280;56280;49.662;8.408;2023-08-31T12:36:35;100344.75;;;22.08;42.14
69173;BME280;56280;49.662;8.408;2023-08-31T12:39:06;100371.94;;;22.54;42.41
69173;BME280;56280;49.662;8.408;2023-08-31T12:41:37;100365.31;;;22.84;42.37
69173;BME280;56280;49.662;8.408;2023-08-31T12:44:23;100354.47;;;22.77;42.00
69173;BME280;56280;49.662;8.408;2023-08-31T12:46:50;100391.56;;;23.10;42.47
69173;BME280;56280;49.662;8.408;2023-08-31T12:49:15;100380.94;;;23.35;42.94
69173;BME280;56280;49.662;8.408;2023-08-31T12:51:41;100343.41;;;23.25;42.84
69173;BME280;56280;49.662;8.408;2023-08-31T12:54:06;100377.81;;;23.32;42.56
69173;BME280;56280;49.662;8.408;2023-08-31T12:56:33;100378.69;;;23.12;41.14
69173;BME280;56280;49.662;8.408;2023-08-31T12:58:58;100376.75;;;22.92;40.60